Terminal Aerodrome Forecast
Issued by NWS

Home | Current Version | Previous Version | Text Only | Print | Product List | Glossary On
Versions: 1 2 3 4 5 6 7 8 9 10 11 12 13 14 15 16
000
FTUS46 KMTR 231100
TAFOAK
TAF
KOAK 231122Z 2312/2418 24004KT P6SM BKN016
     FM231800 30010KT P6SM FEW015
     FM232100 30015KT P6SM FEW015
     FM240400 30010KT P6SM BKN015
     FM240600 31005KT P6SM OVC015=

USA.gov is the U.S. government's official web portal to all federal, state and local government web resources and services.